Time;durP1;ratioP1;P1;durP2;ratioP2;P2;SDS_P1;SDS_P2;PMS_P1;PMS_P2;Temp;Humidity;BMP_temperature;BMP_pressure;BME280_temperature;BME280_humidity;BME280_pressure;Samples;Min_cycle;Max_cycle;Signal;HPM_P1;HPM_P2
2023/01/09 00:01:36;;;;;;;0.00;0.00;;;7.70;99.90;;;;;;5095803;28;20516;-77
2023/01/09 00:04:03;;;;;;;0.17;0.17;;;7.70;99.90;;;;;;5073357;28;20423;-77
2023/01/09 00:06:31;;;;;;;0.08;0.08;;;7.80;99.90;;;;;;5091317;28;20466;-75
2023/01/09 00:08:57;;;;;;;0.10;0.00;;;7.80;99.90;;;;;;5087255;28;20430;-76
2023/01/09 00:11:25;;;;;;;0.10;0.10;;;7.80;99.90;;;;;;5092231;28;20425;-77
2023/01/09 00:13:51;;;;;;;0.20;0.20;;;7.70;1.00;;;;;;5090335;28;20433;-77
2023/01/09 00:16:19;;;;;;;0.10;0.10;;;7.70;1.00;;;;;;5083918;28;20423;-77
2023/01/09 00:18:46;;;;;;;0.20;0.20;;;7.70;1.00;;;;;;5073508;28;20470;-77
2023/01/09 00:21:15;;;;;;;0.10;0.10;;;7.70;1.00;;;;;;5074446;28;20431;-76
2023/01/09 00:23:42;;;;;;;0.00;0.00;;;7.70;1.00;;;;;;5097016;28;20914;-78
2023/01/09 00:26:11;;;;;;;0.00;0.00;;;7.70;1.00;;;;;;5095830;28;20430;-77
2023/01/09 00:28:38;;;;;;;0.10;0.10;;;7.70;1.00;;;;;;5090865;28;20427;-78
2023/01/09 00:31:06;;;;;;;0.30;0.10;;;7.70;1.00;;;;;;5095773;28;20428;-78
2023/01/09 00:33:39;;;;;;;0.00;0.00;;;7.70;1.00;;;;;;5085796;28;20436;-77
2023/01/09 00:36:06;;;;;;;0.10;0.10;;;7.70;1.00;;;;;;5086070;28;20441;-77
2023/01/09 00:38:35;;;;;;;0.00;0.00;;;7.70;1.00;;;;;;5095162;28;20483;-78
2023/01/09 00:41:05;;;;;;;0.00;0.00;;;7.70;1.00;;;;;;5092472;28;20427;-77
2023/01/09 00:43:40;;;;;;;0.30;0.30;;;7.70;1.00;;;;;;5092914;28;20429;-77
2023/01/09 00:46:07;;;;;;;0.20;0.20;;;7.70;1.00;;;;;;5094721;28;20434;-77
2023/01/09 00:48:37;;;;;;;0.10;0.10;;;7.70;1.00;;;;;;5083263;28;20435;-78
2023/01/09 00:51:07;;;;;;;0.10;0.10;;;7.70;1.00;;;;;;5106705;28;20459;-77
2023/01/09 00:53:38;;;;;;;1.73;0.30;;;7.60;1.00;;;;;;5098963;28;20790;-77
2023/01/09 00:56:08;;;;;;;0.60;0.30;;;7.60;1.00;;;;;;5092824;28;20430;-77
2023/01/09 00:58:36;;;;;;;0.10;0.10;;;7.60;1.00;;;;;;5083550;28;20453;-77
2023/01/09 01:01:02;;;;;;;0.20;0.20;;;7.60;1.00;;;;;;5112594;28;20463;-78
2023/01/09 01:03:32;;;;;;;1.30;0.20;;;7.60;1.00;;;;;;5095161;28;20470;-76
2023/01/09 01:08:47;;;;;;;0.10;0.10;;;7.60;1.00;;;;;;5079713;28;20488;-77
2023/01/09 01:11:13;;;;;;;0.15;0.00;;;7.60;1.00;;;;;;5091713;28;20426;-76
2023/01/09 01:13:41;;;;;;;0.05;0.05;;;7.70;1.00;;;;;;5082546;28;20800;-76
2023/01/09 01:16:10;;;;;;;0.20;0.20;;;7.70;1.00;;;;;;5098015;28;20430;-78
2023/01/09 01:18:37;;;;;;;0.10;0.10;;;7.60;1.00;;;;;;5086909;28;20906;-75
2023/01/09 01:21:06;;;;;;;0.00;0.00;;;7.60;1.00;;;;;;5072541;28;20859;-75
2023/01/09 01:23:33;;;;;;;0.10;0.10;;;7.60;1.00;;;;;;5085089;28;20433;-76
2023/01/09 01:26:18;;;;;;;0.00;0.00;;;7.60;1.00;;;;;;5098079;28;20447;-75
2023/01/09 01:28:44;;;;;;;0.00;0.00;;;7.60;1.00;;;;;;5072002;27;20506;-76
2023/01/09 01:31:16;;;;;;;0.20;0.20;;;7.60;1.00;;;;;;5095869;28;20429;-76
2023/01/09 01:33:43;;;;;;;0.20;0.20;;;7.60;1.00;;;;;;5081038;28;20426;-76
2023/01/09 01:36:09;;;;;;;0.00;0.00;;;7.60;1.00;;;;;;5099235;28;20779;-76
2023/01/09 01:38:39;;;;;;;0.10;0.10;;;7.70;1.00;;;;;;5090836;28;20441;-75
2023/01/09 01:41:06;;;;;;;0.00;0.00;;;7.70;1.00;;;;;;5091896;28;20437;-76
2023/01/09 01:43:54;;;;;;;0.30;0.30;;;7.70;1.00;;;;;;5087542;28;20434;-76
2023/01/09 01:46:21;;;;;;;0.00;0.00;;;7.70;1.00;;;;;;5089506;28;20905;-76
2023/01/09 01:48:54;;;;;;;0.00;0.00;;;7.70;1.00;;;;;;5085489;28;20462;-75
2023/01/09 01:51:24;;;;;;;0.10;0.10;;;7.70;1.00;;;;;;5099090;28;20928;-76
2023/01/09 01:53:55;;;;;;;0.10;0.10;;;7.70;1.00;;;;;;5094030;28;20960;-76
2023/01/09 01:56:26;;;;;;;0.13;0.13;;;7.60;1.00;;;;;;5072671;28;20514;-75
2023/01/09 01:59:30;;;;;;;0.70;0.30;;;7.60;1.00;;;;;;5103719;28;20428;-75
2023/01/09 02:02:01;;;;;;;0.20;0.20;;;7.50;1.00;;;;;;5079439;28;20530;-75
2023/01/09 02:04:30;;;;;;;0.40;0.30;;;7.40;1.00;;;;;;5093264;28;20449;-75
2023/01/09 02:07:01;;;;;;;0.70;0.55;;;7.40;1.00;;;;;;5085053;28;20432;-75
2023/01/09 02:09:31;;;;;;;0.30;0.30;;;7.30;1.00;;;;;;5088495;28;20505;-77
2023/01/09 02:11:59;;;;;;;0.10;0.10;;;7.30;1.00;;;;;;5089814;28;20435;-76
2023/01/09 02:14:29;;;;;;;0.20;0.20;;;7.30;99.90;;;;;;5085398;28;20430;-75
2023/01/09 02:17:13;;;;;;;0.20;0.10;;;7.30;99.90;;;;;;5081762;28;20440;-76
2023/01/09 02:20:11;;;;;;;0.10;0.10;;;7.30;99.90;;;;;;5076908;28;20437;-76
2023/01/09 02:23:09;;;;;;;0.10;0.10;;;7.20;99.90;;;;;;5090087;28;20461;-76
2023/01/09 02:26:06;;;;;;;0.20;0.20;;;7.20;99.90;;;;;;5084070;28;20435;-76
2023/01/09 02:28:50;;;;;;;0.10;0.10;;;7.10;99.90;;;;;;5089890;28;20440;-76
2023/01/09 02:31:17;;;;;;;0.13;0.13;;;7.00;99.90;;;;;;5091426;28;21113;-76
2023/01/09 02:33:59;;;;;;;0.10;0.10;;;6.90;99.90;;;;;;5084705;28;20667;-75
2023/01/09 02:36:56;;;;;;;0.10;0.10;;;6.90;99.90;;;;;;5083479;28;20436;-75
2023/01/09 02:39:37;;;;;;;0.10;0.10;;;6.80;99.90;;;;;;5085535;28;20552;-76
2023/01/09 02:42:38;;;;;;;0.15;0.15;;;6.70;99.90;;;;;;5093256;28;20948;-76
2023/01/09 02:45:05;;;;;;;0.10;0.10;;;6.60;99.90;;;;;;5049279;28;20441;-75
2023/01/09 02:47:44;;;;;;;0.10;0.10;;;6.60;99.90;;;;;;5052638;28;20432;-75
2023/01/09 02:50:34;;;;;;;0.10;0.10;;;6.50;99.90;;;;;;5060818;28;20459;-75
2023/01/09 02:53:17;;;;;;;0.00;0.00;;;6.50;99.90;;;;;;5051645;28;20424;-76
2023/01/09 02:55:52;;;;;;;0.10;0.10;;;6.40;99.90;;;;;;5047104;28;20831;-76
2023/01/09 02:58:50;;;;;;;0.10;0.10;;;6.50;99.90;;;;;;5057324;28;20432;-79
2023/01/09 03:01:46;;;;;;;0.10;0.10;;;6.60;99.90;;;;;;5056061;28;20428;-78
2023/01/09 03:04:43;;;;;;;0.10;0.10;;;6.60;99.90;;;;;;5050818;28;20434;-77
2023/01/09 03:07:17;;;;;;;0.20;0.20;;;6.60;99.90;;;;;;5046995;28;20433;-77
2023/01/09 03:09:47;;;;;;;0.10;0.10;;;6.70;99.90;;;;;;5045873;28;20424;-76
2023/01/09 03:12:21;;;;;;;0.10;0.10;;;6.60;99.90;;;;;;5046589;28;20528;-76
2023/01/09 03:14:54;;;;;;;0.08;0.08;;;6.60;99.90;;;;;;5045964;28;21240;-76
2023/01/09 03:17:30;;;;;;;0.00;0.00;;;6.60;99.90;;;;;;5047550;28;20511;-76
2023/01/09 03:19:59;;;;;;;0.20;0.20;;;6.70;99.90;;;;;;5051754;28;20434;-76
2023/01/09 03:22:26;;;;;;;0.10;0.10;;;6.70;99.90;;;;;;5071275;28;20918;-76
2023/01/09 03:24:53;;;;;;;0.13;0.13;;;6.70;99.90;;;;;;5093054;28;20422;-76
2023/01/09 03:27:20;;;;;;;0.10;0.10;;;6.80;99.90;;;;;;5088996;28;20429;-76
2023/01/09 03:29:46;;;;;;;0.10;0.10;;;6.80;99.90;;;;;;5094591;28;20770;-77
2023/01/09 03:32:16;;;;;;;0.10;0.10;;;6.80;99.90;;;;;;5110397;28;20440;-77
2023/01/09 03:34:43;;;;;;;0.10;0.10;;;6.80;99.90;;;;;;5110256;28;20451;-76
2023/01/09 03:37:09;;;;;;;0.10;0.10;;;6.80;99.90;;;;;;5099948;28;20451;-76
2023/01/09 03:39:36;;;;;;;0.10;0.10;;;6.80;99.90;;;;;;5092494;28;20957;-76
2023/01/09 03:42:03;;;;;;;0.10;0.10;;;6.80;99.90;;;;;;5110454;28;20455;-76
2023/01/09 03:44:30;;;;;;;0.20;0.20;;;6.80;99.90;;;;;;5070383;28;20439;-76
2023/01/09 03:46:57;;;;;;;0.20;0.20;;;6.80;99.90;;;;;;5088240;28;20484;-76
2023/01/09 03:49:26;;;;;;;0.10;0.10;;;6.80;99.90;;;;;;5110321;28;20424;-77
2023/01/09 03:51:52;;;;;;;0.10;0.10;;;6.80;99.90;;;;;;5089822;28;20839;-76
2023/01/09 03:54:19;;;;;;;0.10;0.10;;;6.80;99.90;;;;;;5094296;28;20802;-76
2023/01/09 03:56:46;;;;;;;0.10;0.10;;;6.70;99.90;;;;;;5097935;28;20423;-76
2023/01/09 03:59:12;;;;;;;0.10;0.10;;;6.70;99.90;;;;;;5069277;28;20431;-75
2023/01/09 04:01:42;;;;;;;0.10;0.10;;;6.70;99.90;;;;;;5071487;28;21016;-75
2023/01/09 04:04:09;;;;;;;0.10;0.10;;;6.70;99.90;;;;;;5092326;28;20516;-74
2023/01/09 04:06:36;;;;;;;0.10;0.10;;;6.70;99.90;;;;;;5091081;28;20479;-75
2023/01/09 04:09:05;;;;;;;0.10;0.10;;;6.70;99.90;;;;;;5080364;28;20431;-74
2023/01/09 04:11:31;;;;;;;0.10;0.10;;;6.70;99.90;;;;;;5072026;28;20433;-75
2023/01/09 04:13:58;;;;;;;0.10;0.10;;;6.80;99.90;;;;;;5100934;28;20428;-75
2023/01/09 04:16:25;;;;;;;0.10;0.10;;;6.80;99.90;;;;;;5092758;28;20938;-74
2023/01/09 04:18:51;;;;;;;0.10;0.10;;;6.80;99.90;;;;;;5085122;28;20420;-75
2023/01/09 04:21:18;;;;;;;0.00;0.00;;;6.80;99.90;;;;;;5091111;28;20498;-74
2023/01/09 04:23:45;;;;;;;0.20;0.20;;;6.70;99.90;;;;;;5075992;28;20427;-76
2023/01/09 04:26:12;;;;;;;0.10;0.10;;;6.80;99.90;;;;;;5081539;28;20435;-75
2023/01/09 04:28:39;;;;;;;0.17;0.17;;;6.80;99.90;;;;;;5090148;28;20454;-75
2023/01/09 04:31:05;;;;;;;0.10;0.10;;;6.80;99.90;;;;;;5082431;28;20925;-75
2023/01/09 04:33:35;;;;;;;0.10;0.10;;;6.70;99.90;;;;;;5084513;28;20428;-75
2023/01/09 04:36:02;;;;;;;0.10;0.10;;;6.70;99.90;;;;;;5075582;28;20440;-76
2023/01/09 04:38:32;;;;;;;0.10;0.10;;;6.70;99.90;;;;;;5083208;28;20427;-76
2023/01/09 04:40:58;;;;;;;0.10;0.10;;;6.70;99.90;;;;;;5096912;28;20915;-76
2023/01/09 04:43:25;;;;;;;0.10;0.10;;;6.60;99.90;;;;;;5079512;28;20458;-77
2023/01/09 04:45:52;;;;;;;0.50;0.20;;;6.60;99.90;;;;;;5086929;28;20485;-76
2023/01/09 04:48:19;;;;;;;0.10;0.10;;;6.60;99.90;;;;;;5085289;28;20517;-76
2023/01/09 04:50:47;;;;;;;0.00;0.00;;;6.60;99.90;;;;;;5087412;28;20483;-76
2023/01/09 04:53:14;;;;;;;0.00;0.00;;;6.60;99.90;;;;;;5088060;28;20435;-76
2023/01/09 04:55:41;;;;;;;0.10;0.10;;;6.60;99.90;;;;;;5087897;28;20433;-76
2023/01/09 04:58:08;;;;;;;0.10;0.10;;;6.60;99.90;;;;;;5101723;28;20427;-76
2023/01/09 05:00:35;;;;;;;0.10;0.10;;;6.60;99.90;;;;;;5107082;28;20423;-76
2023/01/09 05:03:02;;;;;;;0.10;0.10;;;6.60;99.90;;;;;;5090197;28;20430;-76
2023/01/09 05:05:29;;;;;;;0.20;0.20;;;6.60;99.90;;;;;;5101252;28;20423;-76
2023/01/09 05:07:55;;;;;;;0.10;0.10;;;6.70;99.90;;;;;;5092978;28;20430;-76
2023/01/09 05:10:25;;;;;;;0.10;0.10;;;6.60;99.90;;;;;;5088280;28;22446;-76
2023/01/09 05:12:51;;;;;;;0.20;0.20;;;6.60;99.90;;;;;;5093767;28;20435;-75
2023/01/09 05:15:18;;;;;;;0.10;0.10;;;6.60;99.90;;;;;;5084336;28;20431;-76
2023/01/09 05:17:48;;;;;;;0.10;0.10;;;6.60;99.90;;;;;;5097374;28;20427;-76
2023/01/09 05:20:16;;;;;;;0.10;0.10;;;6.50;99.90;;;;;;5081471;28;20512;-76
2023/01/09 05:22:43;;;;;;;0.20;0.20;;;6.40;99.90;;;;;;5075151;28;20438;-75
2023/01/09 05:25:10;;;;;;;0.10;0.10;;;6.30;99.90;;;;;;5107726;28;20424;-76
2023/01/09 05:27:37;;;;;;;0.10;0.10;;;6.30;99.90;;;;;;5100871;28;20424;-76
2023/01/09 05:30:04;;;;;;;0.10;0.10;;;6.20;99.90;;;;;;5084365;28;20442;-76
2023/01/09 05:32:30;;;;;;;1.20;0.50;;;6.10;99.90;;;;;;5098778;28;20453;-76
2023/01/09 05:34:57;;;;;;;0.10;0.10;;;6.10;99.90;;;;;;5093334;28;20431;-76
2023/01/09 05:37:24;;;;;;;0.10;0.10;;;6.00;99.90;;;;;;5101438;28;20424;-76
2023/01/09 05:39:50;;;;;;;0.20;0.20;;;6.00;99.90;;;;;;5084532;28;20432;-75
2023/01/09 05:42:17;;;;;;;0.40;0.40;;;6.00;99.90;;;;;;5108526;28;20515;-76
2023/01/09 05:44:44;;;;;;;0.10;0.10;;;6.00;99.90;;;;;;5098012;28;20503;-77
2023/01/09 05:47:11;;;;;;;0.10;0.10;;;6.10;99.90;;;;;;5091508;28;20474;-76
2023/01/09 05:49:37;;;;;;;0.20;0.20;;;6.10;99.90;;;;;;5101528;28;20518;-77
2023/01/09 05:52:04;;;;;;;0.10;0.10;;;6.00;99.90;;;;;;5071790;28;20439;-77
2023/01/09 05:54:31;;;;;;;0.20;0.20;;;5.90;99.90;;;;;;5082871;28;20427;-77
2023/01/09 05:56:57;;;;;;;0.10;0.10;;;5.80;99.90;;;;;;5088949;28;20472;-77
2023/01/09 05:59:24;;;;;;;1.58;0.25;;;5.70;99.90;;;;;;5077538;28;20451;-77
2023/01/09 06:01:51;;;;;;;0.10;0.10;;;5.60;99.90;;;;;;5094286;28;20438;-77
2023/01/09 06:04:18;;;;;;;0.20;0.20;;;5.50;99.90;;;;;;5083497;28;20486;-77
2023/01/09 06:06:45;;;;;;;0.20;0.20;;;5.40;99.90;;;;;;5090879;28;20438;-73
2023/01/09 06:09:11;;;;;;;0.10;0.10;;;5.40;99.90;;;;;;5089423;28;20465;-73
2023/01/09 06:11:38;;;;;;;0.10;0.10;;;5.40;99.90;;;;;;5091016;28;20797;-74
2023/01/09 06:14:05;;;;;;;0.10;0.10;;;5.60;99.90;;;;;;5093243;28;20462;-75
2023/01/09 06:16:34;;;;;;;0.20;0.20;;;5.70;99.90;;;;;;5091160;28;20438;-73
2023/01/09 06:19:04;;;;;;;0.80;0.80;;;5.80;99.90;;;;;;5071083;28;20461;-74
2023/01/09 06:21:32;;;;;;;0.10;0.10;;;5.80;99.90;;;;;;5101440;28;20435;-74
2023/01/09 06:23:59;;;;;;;0.10;0.10;;;5.80;99.90;;;;;;5081921;28;20431;-74
2023/01/09 06:26:26;;;;;;;0.10;0.10;;;5.80;99.90;;;;;;5090159;28;20748;-74
2023/01/09 06:28:56;;;;;;;0.10;0.10;;;5.70;99.90;;;;;;5111228;28;20898;-74
2023/01/09 06:31:23;;;;;;;0.10;0.10;;;5.60;99.90;;;;;;5086472;28;20422;-74
2023/01/09 06:33:51;;;;;;;0.10;0.10;;;5.40;99.90;;;;;;5091757;28;20420;-73
2023/01/09 06:36:21;;;;;;;0.10;0.10;;;5.40;99.90;;;;;;5099490;28;20425;-74
2023/01/09 06:38:48;;;;;;;0.10;0.10;;;5.40;99.90;;;;;;5084742;28;20433;-74
2023/01/09 06:41:15;;;;;;;0.10;0.10;;;5.50;99.90;;;;;;5096077;28;20433;-74
2023/01/09 06:43:42;;;;;;;0.10;0.10;;;5.50;99.90;;;;;;5093044;28;20432;-73
2023/01/09 06:46:08;;;;;;;0.10;0.10;;;5.60;99.90;;;;;;5110201;28;20478;-73
2023/01/09 06:48:35;;;;;;;0.10;0.10;;;5.70;99.90;;;;;;5085789;28;20436;-74
2023/01/09 06:51:02;;;;;;;0.20;0.20;;;5.80;99.90;;;;;;5085674;28;20417;-74
2023/01/09 06:53:29;;;;;;;0.10;0.10;;;5.90;99.90;;;;;;5092065;28;20513;-73
2023/01/09 06:55:56;;;;;;;0.13;0.13;;;6.00;99.90;;;;;;5075850;28;20426;-73
2023/01/09 06:58:22;;;;;;;0.10;0.10;;;6.10;99.90;;;;;;5098745;28;20928;-73
2023/01/09 07:00:49;;;;;;;0.30;0.30;;;6.10;99.90;;;;;;5101857;28;20429;-73
2023/01/09 07:03:18;;;;;;;0.20;0.20;;;6.10;99.90;;;;;;5078370;28;20430;-73
2023/01/09 07:05:46;;;;;;;0.20;0.20;;;6.20;99.90;;;;;;5093201;28;20447;-74
2023/01/09 07:08:13;;;;;;;0.30;0.30;;;6.20;99.90;;;;;;5076193;28;20436;-74
2023/01/09 07:10:44;;;;;;;0.20;0.20;;;6.20;99.90;;;;;;5085986;28;20541;-74
2023/01/09 07:13:10;;;;;;;0.15;0.15;;;6.20;99.90;;;;;;5075432;28;20445;-74
2023/01/09 07:15:37;;;;;;;0.17;0.17;;;6.20;99.90;;;;;;5076407;28;20430;-73
2023/01/09 07:18:04;;;;;;;0.13;0.13;;;6.20;99.90;;;;;;5072069;28;20433;-74
2023/01/09 07:20:31;;;;;;;0.10;0.10;;;6.10;99.90;;;;;;5078775;28;20431;-74
2023/01/09 07:22:57;;;;;;;0.10;0.10;;;6.00;99.90;;;;;;5084682;28;20432;-74
2023/01/09 07:25:24;;;;;;;0.10;0.10;;;6.00;99.90;;;;;;5073538;28;20435;-74
2023/01/09 07:27:51;;;;;;;0.10;0.10;;;5.90;99.90;;;;;;5082279;28;20426;-74
2023/01/09 07:30:18;;;;;;;0.10;0.10;;;5.80;99.90;;;;;;5078155;28;20457;-74
2023/01/09 07:32:44;;;;;;;0.20;0.20;;;5.90;99.90;;;;;;5075823;28;20425;-74
2023/01/09 07:35:11;;;;;;;0.10;0.10;;;5.90;99.90;;;;;;5090003;28;20946;-74
2023/01/09 07:37:38;;;;;;;0.10;0.10;;;6.00;99.90;;;;;;5083215;28;20812;-74
2023/01/09 07:40:05;;;;;;;0.10;0.10;;;6.10;99.90;;;;;;5099356;28;20444;-74
2023/01/09 07:42:32;;;;;;;0.20;0.20;;;6.10;99.90;;;;;;5100520;28;20795;-74
2023/01/09 07:44:59;;;;;;;0.10;0.10;;;6.10;99.90;;;;;;5088952;28;20435;-74
2023/01/09 07:47:25;;;;;;;3.20;0.20;;;6.20;99.90;;;;;;5094406;28;20447;-74
2023/01/09 07:49:52;;;;;;;1.50;0.20;;;6.30;99.90;;;;;;5100223;28;20416;-74
2023/01/09 07:52:19;;;;;;;0.10;0.10;;;6.40;99.90;;;;;;5084464;28;20439;-74
2023/01/09 07:54:45;;;;;;;0.10;0.10;;;6.40;99.90;;;;;;5083339;28;20426;-74
2023/01/09 07:57:12;;;;;;;0.20;0.20;;;6.50;99.90;;;;;;5069199;28;20431;-75
2023/01/09 07:59:39;;;;;;;0.10;0.10;;;6.60;99.90;;;;;;5076591;28;20423;-74
2023/01/09 08:02:08;;;;;;;0.20;0.20;;;6.70;99.90;;;;;;5097255;28;20431;-75
2023/01/09 08:04:34;;;;;;;0.20;0.20;;;6.80;99.90;;;;;;5094225;28;20434;-74
2023/01/09 08:07:02;;;;;;;0.20;0.20;;;6.90;99.90;;;;;;5082833;28;20897;-74
2023/01/09 08:09:31;;;;;;;0.20;0.20;;;7.10;99.90;;;;;;5077271;28;20521;-75
2023/01/09 08:12:00;;;;;;;0.30;0.30;;;7.20;99.90;;;;;;5080806;28;20418;-75
2023/01/09 08:14:27;;;;;;;0.35;0.35;;;7.30;99.90;;;;;;5080117;28;20445;-74
2023/01/09 08:16:53;;;;;;;0.10;0.10;;;7.20;99.90;;;;;;5088817;28;20424;-76
2023/01/09 08:19:20;;;;;;;1.10;0.50;;;7.10;99.90;;;;;;5077909;28;20431;-75
2023/01/09 08:21:47;;;;;;;0.10;0.10;;;7.00;99.90;;;;;;5080511;28;20745;-75
2023/01/09 08:24:14;;;;;;;0.50;0.50;;;6.90;99.90;;;;;;5080620;28;20425;-75
2023/01/09 08:26:40;;;;;;;0.13;0.13;;;6.80;99.90;;;;;;5079696;28;20428;-75
2023/01/09 08:29:07;;;;;;;0.30;0.30;;;6.80;99.90;;;;;;5092054;28;20432;-75
2023/01/09 08:31:34;;;;;;;0.20;0.20;;;6.80;99.90;;;;;;5078689;28;20434;-74
2023/01/09 08:34:01;;;;;;;0.10;0.10;;;6.80;99.90;;;;;;5090423;28;20448;-74
2023/01/09 08:36:30;;;;;;;0.10;0.10;;;6.80;99.90;;;;;;5081849;28;20483;-75
2023/01/09 08:38:57;;;;;;;0.13;0.13;;;6.70;99.90;;;;;;5088193;28;20420;-74
2023/01/09 08:47:07;;;;;;;0.10;0.10;;;6.90;99.90;;;;;;5089221;28;20497;-74
2023/01/09 08:49:36;;;;;;;0.20;0.20;;;6.80;99.90;;;;;;5086430;28;20428;-75
2023/01/09 08:52:03;;;;;;;0.20;0.20;;;6.70;99.90;;;;;;5094127;28;20439;-75
2023/01/09 08:54:30;;;;;;;0.30;0.30;;;6.60;99.90;;;;;;5074269;28;20508;-75
2023/01/09 08:56:57;;;;;;;0.20;0.20;;;6.60;99.90;;;;;;5084556;28;20540;-75
2023/01/09 08:59:24;;;;;;;0.10;0.10;;;6.50;99.90;;;;;;5080515;28;20462;-75
2023/01/09 09:01:50;;;;;;;0.10;0.10;;;6.60;99.90;;;;;;5087959;28;20437;-75
2023/01/09 09:04:17;;;;;;;0.10;0.10;;;6.50;99.90;;;;;;5087543;28;20459;-74
2023/01/09 09:06:44;;;;;;;0.20;0.20;;;6.70;99.90;;;;;;5086422;28;20436;-75
2023/01/09 09:09:13;;;;;;;0.10;0.10;;;6.80;99.90;;;;;;5099224;28;20439;-74
2023/01/09 09:11:40;;;;;;;0.10;0.10;;;6.80;99.90;;;;;;5077954;28;20531;-75
2023/01/09 09:16:55;;;;;;;0.20;0.20;;;6.90;99.90;;;;;;5081978;28;20518;-74
2023/01/09 09:19:22;;;;;;;0.10;0.10;;;6.80;99.90;;;;;;5095365;28;20432;-74
2023/01/09 09:21:51;;;;;;;0.10;0.10;;;6.80;99.90;;;;;;5101853;28;20453;-74
2023/01/09 09:24:18;;;;;;;0.20;0.20;;;6.80;99.90;;;;;;5081924;28;20430;-74
2023/01/09 09:26:45;;;;;;;0.20;0.20;;;6.80;99.90;;;;;;5095426;28;20424;-74
2023/01/09 09:29:12;;;;;;;0.20;0.20;;;6.80;99.90;;;;;;5092168;28;20430;-74
2023/01/09 09:31:38;;;;;;;0.20;0.20;;;6.70;99.90;;;;;;5095969;28;21155;-74
2023/01/09 09:34:06;;;;;;;0.15;0.15;;;6.60;99.90;;;;;;5091702;28;20475;-74
2023/01/09 09:36:33;;;;;;;0.10;0.10;;;6.60;99.90;;;;;;5071752;28;20936;-75
2023/01/09 09:39:01;;;;;;;0.10;0.10;;;6.50;99.90;;;;;;5099961;28;20507;-75
2023/01/09 09:45:24;;;;;;;0.10;0.10;;;6.50;99.90;;;;;;5099058;28;20963;-75
2023/01/09 09:48:09;;;;;;;0.00;0.00;;;6.50;99.90;;;;;;5077089;28;20430;-75
2023/01/09 09:51:14;;;;;;;0.10;0.10;;;6.50;99.90;;;;;;5079988;28;20426;-74
2023/01/09 09:53:48;;;;;;;0.10;0.10;;;6.50;99.90;;;;;;5089201;28;20434;-75
2023/01/09 09:56:18;;;;;;;0.10;0.10;;;6.60;99.90;;;;;;5073729;28;20507;-74
2023/01/09 09:58:50;;;;;;;0.10;0.10;;;6.50;99.90;;;;;;5088721;28;20432;-74
2023/01/09 10:02:01;;;;;;;0.10;0.10;;;6.60;99.90;;;;;;5087350;28;20444;-74
2023/01/09 10:04:31;;;;;;;0.00;0.00;;;6.70;99.90;;;;;;5053119;28;20537;-74
2023/01/09 10:07:08;;;;;;;0.05;0.05;;;6.70;99.90;;;;;;5044108;28;20428;-74
2023/01/09 10:09:54;;;;;;;0.10;0.10;;;6.70;99.90;;;;;;5045505;28;21008;-74
2023/01/09 10:12:30;;;;;;;0.10;0.10;;;6.70;99.90;;;;;;5055619;28;20430;-75
2023/01/09 10:15:00;;;;;;;0.40;0.30;;;6.60;99.90;;;;;;5057790;28;20850;-74
2023/01/09 10:17:59;;;;;;;0.10;0.10;;;6.70;99.90;;;;;;5047763;28;20511;-75
2023/01/09 10:20:33;;;;;;;0.10;0.10;;;6.80;99.90;;;;;;5042827;28;20434;-74
2023/01/09 10:23:07;;;;;;;0.10;0.10;;;7.00;99.90;;;;;;5038826;28;20429;-74
2023/01/09 10:26:04;;;;;;;0.10;0.10;;;7.20;99.90;;;;;;5039693;28;20430;-74
2023/01/09 10:28:52;;;;;;;0.20;0.20;;;7.40;99.90;;;;;;4947706;28;20472;-75
2023/01/09 10:31:42;;;;;;;0.10;0.10;;;7.50;99.90;;;;;;4952355;28;20509;-75
2023/01/09 10:34:27;;;;;;;0.20;0.20;;;7.60;99.90;;;;;;4949367;28;20825;-75
2023/01/09 10:37:00;;;;;;;0.10;0.10;;;7.60;99.90;;;;;;5010279;28;20477;-75
2023/01/09 10:39:39;;;;;;;0.10;0.10;;;7.60;99.90;;;;;;5010409;28;20435;-75
2023/01/09 10:42:33;;;;;;;0.10;0.10;;;7.60;99.90;;;;;;5009078;28;20440;-75
2023/01/09 10:45:15;;;;;;;0.20;0.20;;;7.60;99.90;;;;;;4993796;28;21074;-73
2023/01/09 10:47:43;;;;;;;0.20;0.20;;;7.60;99.90;;;;;;5011190;28;20428;-75
2023/01/09 10:50:34;;;;;;;0.20;0.20;;;7.70;99.90;;;;;;5000766;28;20431;-74
2023/01/09 10:53:19;;;;;;;1.10;0.40;;;7.70;99.90;;;;;;5004911;28;20453;-73
2023/01/09 10:55:47;;;;;;;0.20;0.20;;;7.60;99.90;;;;;;5006343;28;20492;-75
2023/01/09 10:58:16;;;;;;;0.10;0.10;;;7.50;99.90;;;;;;4995460;28;20550;-75
2023/01/09 11:00:44;;;;;;;0.10;0.10;;;7.50;99.90;;;;;;5008309;28;20431;-73
2023/01/09 11:03:13;;;;;;;0.10;0.10;;;7.60;99.90;;;;;;5001074;28;21349;-75
2023/01/09 11:05:40;;;;;;;0.60;0.20;;;7.60;99.90;;;;;;5038344;28;20441;-73
2023/01/09 11:08:40;;;;;;;0.20;0.20;;;7.60;99.90;;;;;;5077734;28;20425;-75
2023/01/09 11:11:08;;;;;;;0.30;0.30;;;7.70;99.90;;;;;;5083009;28;20420;-75
2023/01/09 11:13:37;;;;;;;0.17;0.17;;;7.80;99.90;;;;;;5072610;28;20427;-75
2023/01/09 11:16:10;;;;;;;0.10;0.10;;;7.90;99.90;;;;;;5084161;28;20431;-75
2023/01/09 11:18:59;;;;;;;0.00;0.00;;;8.10;99.90;;;;;;5080458;28;20496;-75
2023/01/09 11:21:40;;;;;;;0.13;0.13;;;8.20;99.90;;;;;;5098974;28;20970;-75
2023/01/09 11:24:20;;;;;;;0.10;0.10;;;8.20;99.90;;;;;;5094067;28;20526;-75
2023/01/09 11:26:49;;;;;;;0.20;0.20;;;8.10;99.90;;;;;;5084238;28;20462;-75
2023/01/09 11:29:19;;;;;;;0.10;0.10;;;7.90;99.90;;;;;;5101930;28;20766;-73
2023/01/09 11:31:59;;;;;;;0.27;0.27;;;7.90;99.90;;;;;;5075605;28;20421;-73
2023/01/09 11:34:35;;;;;;;0.20;0.20;;;7.90;99.90;;;;;;5073897;28;21004;-73
2023/01/09 11:37:09;;;;;;;0.20;0.20;;;7.90;99.90;;;;;;5075442;28;20511;-75
2023/01/09 11:39:40;;;;;;;0.20;0.20;;;8.00;99.90;;;;;;5081412;28;20762;-75
2023/01/09 11:42:50;;;;;;;0.10;0.10;;;8.00;99.90;;;;;;5083014;28;20448;-75
2023/01/09 11:45:34;;;;;;;0.17;0.17;;;8.10;99.90;;;;;;5102287;28;20432;-75
2023/01/09 11:48:16;;;;;;;0.10;0.10;;;8.10;99.90;;;;;;5075832;28;20972;-75
2023/01/09 11:50:53;;;;;;;0.10;0.10;;;8.10;99.90;;;;;;5086839;28;20433;-75
2023/01/09 11:53:21;;;;;;;0.20;0.20;;;8.20;99.90;;;;;;5078747;28;20429;-75
2023/01/09 11:55:56;;;;;;;0.20;0.20;;;8.10;99.90;;;;;;5082547;28;20428;-75
2023/01/09 11:58:22;;;;;;;0.20;0.20;;;8.20;99.90;;;;;;5082980;28;20743;-75
2023/01/09 12:01:07;;;;;;;0.10;0.10;;;8.00;99.90;;;;;;5083959;28;20432;-75
2023/01/09 12:04:00;;;;;;;0.10;0.10;;;8.00;99.90;;;;;;5078680;28;20417;-75
2023/01/09 12:07:10;;;;;;;0.10;0.10;;;7.90;99.90;;;;;;5080838;28;20429;-75
2023/01/09 12:09:56;;;;;;;0.10;0.10;;;7.80;99.90;;;;;;5079862;28;20432;-74
2023/01/09 12:12:34;;;;;;;0.10;0.10;;;7.80;99.90;;;;;;5084543;28;20429;-76
2023/01/09 12:15:27;;;;;;;0.10;0.10;;;7.80;99.90;;;;;;5077589;28;20433;-75
2023/01/09 12:18:03;;;;;;;0.20;0.20;;;7.90;99.90;;;;;;5072406;28;20491;-75
2023/01/09 12:20:48;;;;;;;0.10;0.10;;;8.00;99.90;;;;;;5088675;28;20457;-75
2023/01/09 12:23:40;;;;;;;0.10;0.10;;;8.10;99.90;;;;;;5086376;28;20987;-75
2023/01/09 12:26:21;;;;;;;0.20;0.20;;;8.30;99.90;;;;;;5073192;28;20435;-76
2023/01/09 12:29:07;;;;;;;0.20;0.20;;;8.40;99.90;;;;;;5091063;28;20428;-75
2023/01/09 12:31:48;;;;;;;0.60;0.20;;;8.60;99.90;;;;;;5075236;28;20431;-76
2023/01/09 12:34:52;;;;;;;0.20;0.20;;;8.70;99.90;;;;;;5092352;28;20788;-77
2023/01/09 12:37:40;;;;;;;0.10;0.10;;;8.60;99.90;;;;;;5084192;28;20428;-75
2023/01/09 12:40:19;;;;;;;0.20;0.20;;;8.60;99.90;;;;;;5087803;28;20841;-75
2023/01/09 12:42:57;;;;;;;0.30;0.30;;;8.50;99.90;;;;;;5083447;28;20438;-75
2023/01/09 12:45:33;;;;;;;0.20;0.20;;;8.50;99.90;;;;;;5083786;28;20433;-75
2023/01/09 12:48:26;;;;;;;0.10;0.10;;;8.40;99.90;;;;;;5087494;28;20458;-75
2023/01/09 12:50:52;;;;;;;0.00;0.00;;;8.30;99.90;;;;;;5069227;28;20429;-75
2023/01/09 12:53:34;;;;;;;0.20;0.20;;;8.30;99.90;;;;;;5073387;28;20469;-75
2023/01/09 12:56:10;;;;;;;0.30;0.30;;;8.30;99.90;;;;;;5096688;28;20431;-75
2023/01/09 12:58:51;;;;;;;0.20;0.20;;;8.30;99.90;;;;;;5097929;28;20441;-75
2023/01/09 13:01:27;;;;;;;0.10;0.10;;;8.30;99.90;;;;;;5098868;28;20436;-75
2023/01/09 13:04:20;;;;;;;0.10;0.10;;;8.40;99.90;;;;;;5069232;28;20439;-75
2023/01/09 13:06:53;;;;;;;0.20;0.20;;;8.30;99.90;;;;;;5086065;28;20907;-75
2023/01/09 13:09:35;;;;;;;0.10;0.10;;;8.40;99.90;;;;;;5083107;28;20462;-75
2023/01/09 13:12:03;;;;;;;0.10;0.10;;;8.50;99.90;;;;;;5079112;28;20422;-74
2023/01/09 13:14:44;;;;;;;0.10;0.10;;;8.70;99.90;;;;;;5080921;28;20498;-73
2023/01/09 13:17:26;;;;;;;0.28;0.28;;;8.80;99.90;;;;;;5083162;28;20520;-75
2023/01/09 13:19:53;;;;;;;0.10;0.10;;;8.90;99.90;;;;;;5077596;28;20425;-75
2023/01/09 13:22:26;;;;;;;0.10;0.10;;;8.90;99.90;;;;;;5084748;28;20426;-75
2023/01/09 13:25:15;;;;;;;0.20;0.20;;;9.00;99.90;;;;;;5083327;28;20926;-74
2023/01/09 13:27:54;;;;;;;0.20;0.20;;;9.20;99.90;;;;;;5077125;28;20427;-73
2023/01/09 13:30:43;;;;;;;0.20;0.20;;;9.10;99.90;;;;;;5084250;28;20444;-74
2023/01/09 13:33:35;;;;;;;0.17;0.17;;;9.30;99.90;;;;;;5085717;28;20960;-74
2023/01/09 13:36:03;;;;;;;0.10;0.10;;;9.30;99.90;;;;;;5090635;28;20942;-74
2023/01/09 13:38:34;;;;;;;0.10;0.10;;;9.20;99.90;;;;;;5080889;28;20481;-74
2023/01/09 13:42:34;;;;;;;0.20;0.20;;;9.30;99.90;;;;;;5088436;28;20451;-74